sensor_id;sensor_type;location;lat;lon;timestamp;temperature;humidity
11536;DHT22;5824;49.336;8.652;2022-08-21T00:02:15;18.50;1.00
11536;DHT22;5824;49.336;8.652;2022-08-21T00:04:41;18.50;1.00
11536;DHT22;5824;49.336;8.652;2022-08-21T00:07:07;18.40;1.00
11536;DHT22;5824;49.336;8.652;2022-08-21T00:09:32;18.40;1.00
11536;DHT22;5824;49.336;8.652;2022-08-21T00:11:58;18.40;1.00
11536;DHT22;5824;49.336;8.652;2022-08-21T00:14:23;18.40;1.00
11536;DHT22;5824;49.336;8.652;2022-08-21T00:16:49;18.40;1.00
11536;DHT22;5824;49.336;8.652;2022-08-21T00:19:14;18.40;1.00
11536;DHT22;5824;49.336;8.652;2022-08-21T00:21:40;18.40;1.00
11536;DHT22;5824;49.336;8.652;2022-08-21T00:24:06;18.30;1.00
11536;DHT22;5824;49.336;8.652;2022-08-21T00:26:32;18.40;1.00
11536;DHT22;5824;49.336;8.652;2022-08-21T00:28:57;18.40;1.00
11536;DHT22;5824;49.336;8.652;2022-08-21T00:31:23;18.40;1.00
11536;DHT22;5824;49.336;8.652;2022-08-21T00:33:48;18.40;1.00
11536;DHT22;5824;49.336;8.652;2022-08-21T00:36:14;18.30;1.00
11536;DHT22;5824;49.336;8.652;2022-08-21T00:38:40;18.30;1.00
11536;DHT22;5824;49.336;8.652;2022-08-21T00:41:07;18.20;1.00
11536;DHT22;5824;49.336;8.652;2022-08-21T00:43:35;18.10;1.00
11536;DHT22;5824;49.336;8.652;2022-08-21T00:46:03;18.10;1.00
11536;DHT22;5824;49.336;8.652;2022-08-21T00:48:28;18.10;1.00
11536;DHT22;5824;49.336;8.652;2022-08-21T00:51:02;18.00;1.00
11536;DHT22;5824;49.336;8.652;2022-08-21T00:53:30;18.00;1.00
11536;DHT22;5824;49.336;8.652;2022-08-21T00:55:57;18.00;1.00
11536;DHT22;5824;49.336;8.652;2022-08-21T00:58:23;17.80;1.00
11536;DHT22;5824;49.336;8.652;2022-08-21T01:00:50;17.80;1.00
11536;DHT22;5824;49.336;8.652;2022-08-21T01:03:19;17.60;1.00
11536;DHT22;5824;49.336;8.652;2022-08-21T01:05:45;17.50;1.00
11536;DHT22;5824;49.336;8.652;2022-08-21T01:08:12;17.40;1.00
11536;DHT22;5824;49.336;8.652;2022-08-21T01:10:38;17.30;1.00
11536;DHT22;5824;49.336;8.652;2022-08-21T01:13:06;17.30;1.00
11536;DHT22;5824;49.336;8.652;2022-08-21T01:15:35;17.30;1.00
11536;DHT22;5824;49.336;8.652;2022-08-21T01:18:04;17.20;1.00
11536;DHT22;5824;49.336;8.652;2022-08-21T01:20:30;17.20;1.00
11536;DHT22;5824;49.336;8.652;2022-08-21T01:22:56;17.10;1.00
11536;DHT22;5824;49.336;8.652;2022-08-21T01:25:21;17.00;1.00
11536;DHT22;5824;49.336;8.652;2022-08-21T01:27:48;16.90;1.00
11536;DHT22;5824;49.336;8.652;2022-08-21T01:30:16;16.90;1.00
11536;DHT22;5824;49.336;8.652;2022-08-21T01:32:42;16.90;1.00
11536;DHT22;5824;49.336;8.652;2022-08-21T01:35:08;16.90;1.00
11536;DHT22;5824;49.336;8.652;2022-08-21T01:37:35;16.80;1.00
11536;DHT22;5824;49.336;8.652;2022-08-21T01:40:01;16.80;1.00
11536;DHT22;5824;49.336;8.652;2022-08-21T01:42:27;16.80;1.00
11536;DHT22;5824;49.336;8.652;2022-08-21T01:44:52;16.80;1.00
11536;DHT22;5824;49.336;8.652;2022-08-21T01:47:18;16.80;1.00
11536;DHT22;5824;49.336;8.652;2022-08-21T01:49:44;16.80;1.00
11536;DHT22;5824;49.336;8.652;2022-08-21T01:52:10;16.70;1.00
11536;DHT22;5824;49.336;8.652;2022-08-21T01:54:37;16.70;1.00
11536;DHT22;5824;49.336;8.652;2022-08-21T01:57:03;16.70;1.00
11536;DHT22;5824;49.336;8.652;2022-08-21T01:59:29;16.80;1.00
11536;DHT22;5824;49.336;8.652;2022-08-21T02:01:55;16.80;1.00
11536;DHT22;5824;49.336;8.652;2022-08-21T02:04:20;16.80;1.00
11536;DHT22;5824;49.336;8.652;2022-08-21T02:06:46;16.80;1.00
11536;DHT22;5824;49.336;8.652;2022-08-21T02:09:12;16.70;1.00
11536;DHT22;5824;49.336;8.652;2022-08-21T02:11:39;16.70;1.00
11536;DHT22;5824;49.336;8.652;2022-08-21T02:14:07;16.70;1.00
11536;DHT22;5824;49.336;8.652;2022-08-21T02:16:32;16.70;1.00
11536;DHT22;5824;49.336;8.652;2022-08-21T02:18:58;16.70;1.00
11536;DHT22;5824;49.336;8.652;2022-08-21T02:21:24;16.60;1.00
11536;DHT22;5824;49.336;8.652;2022-08-21T02:23:49;16.60;1.00
11536;DHT22;5824;49.336;8.652;2022-08-21T02:26:15;16.60;1.00
11536;DHT22;5824;49.336;8.652;2022-08-21T02:28:40;16.50;1.00
11536;DHT22;5824;49.336;8.652;2022-08-21T02:31:07;16.50;1.00
11536;DHT22;5824;49.336;8.652;2022-08-21T02:33:32;16.50;1.00
11536;DHT22;5824;49.336;8.652;2022-08-21T02:35:59;16.40;1.00
11536;DHT22;5824;49.336;8.652;2022-08-21T02:38:28;16.30;1.00
11536;DHT22;5824;49.336;8.652;2022-08-21T02:40:54;16.30;1.00
11536;DHT22;5824;49.336;8.652;2022-08-21T02:43:22;16.20;1.00
11536;DHT22;5824;49.336;8.652;2022-08-21T02:45:49;16.20;1.00
11536;DHT22;5824;49.336;8.652;2022-08-21T02:48:17;16.10;1.00
11536;DHT22;5824;49.336;8.652;2022-08-21T02:51:06;16.10;1.00
11536;DHT22;5824;49.336;8.652;2022-08-21T02:53:32;16.00;1.00
11536;DHT22;5824;49.336;8.652;2022-08-21T02:56:01;15.90;1.00
11536;DHT22;5824;49.336;8.652;2022-08-21T02:58:40;15.90;1.00
11536;DHT22;5824;49.336;8.652;2022-08-21T03:01:07;15.80;1.00
11536;DHT22;5824;49.336;8.652;2022-08-21T03:03:36;15.90;1.00
11536;DHT22;5824;49.336;8.652;2022-08-21T03:06:03;15.80;1.00
11536;DHT22;5824;49.336;8.652;2022-08-21T03:08:29;16.00;1.00
11536;DHT22;5824;49.336;8.652;2022-08-21T03:10:55;15.80;1.00
11536;DHT22;5824;49.336;8.652;2022-08-21T03:13:21;15.80;1.00
11536;DHT22;5824;49.336;8.652;2022-08-21T03:15:48;15.80;1.00
11536;DHT22;5824;49.336;8.652;2022-08-21T03:18:14;15.70;1.00
11536;DHT22;5824;49.336;8.652;2022-08-21T03:20:41;15.70;1.00
11536;DHT22;5824;49.336;8.652;2022-08-21T03:23:08;15.70;1.00
11536;DHT22;5824;49.336;8.652;2022-08-21T03:25:35;15.60;1.00
11536;DHT22;5824;49.336;8.652;2022-08-21T03:28:03;15.50;1.00
11536;DHT22;5824;49.336;8.652;2022-08-21T03:30:29;15.40;1.00
11536;DHT22;5824;49.336;8.652;2022-08-21T03:32:57;15.40;1.00
11536;DHT22;5824;49.336;8.652;2022-08-21T03:35:23;15.40;1.00
11536;DHT22;5824;49.336;8.652;2022-08-21T03:37:49;15.40;1.00
11536;DHT22;5824;49.336;8.652;2022-08-21T03:40:17;15.40;1.00
11536;DHT22;5824;49.336;8.652;2022-08-21T03:42:43;15.50;1.00
11536;DHT22;5824;49.336;8.652;2022-08-21T03:45:13;15.40;1.00
11536;DHT22;5824;49.336;8.652;2022-08-21T03:47:39;15.50;1.00
11536;DHT22;5824;49.336;8.652;2022-08-21T03:50:15;15.40;1.00
11536;DHT22;5824;49.336;8.652;2022-08-21T03:52:42;15.40;1.00
11536;DHT22;5824;49.336;8.652;2022-08-21T03:55:07;15.40;1.00
11536;DHT22;5824;49.336;8.652;2022-08-21T03:57:33;15.40;1.00
11536;DHT22;5824;49.336;8.652;2022-08-21T03:59:58;15.40;1.00
11536;DHT22;5824;49.336;8.652;2022-08-21T04:02:24;15.40;1.00
11536;DHT22;5824;49.336;8.652;2022-08-21T04:04:50;15.40;1.00
11536;DHT22;5824;49.336;8.652;2022-08-21T04:07:16;15.40;1.00
11536;DHT22;5824;49.336;8.652;2022-08-21T04:09:42;15.40;1.00
11536;DHT22;5824;49.336;8.652;2022-08-21T04:12:07;15.30;1.00
11536;DHT22;5824;49.336;8.652;2022-08-21T04:14:33;15.30;1.00
11536;DHT22;5824;49.336;8.652;2022-08-21T04:16:58;15.40;1.00
11536;DHT22;5824;49.336;8.652;2022-08-21T04:19:24;15.40;1.00
11536;DHT22;5824;49.336;8.652;2022-08-21T04:21:50;15.70;1.00
11536;DHT22;5824;49.336;8.652;2022-08-21T04:24:15;15.40;1.00
11536;DHT22;5824;49.336;8.652;2022-08-21T04:26:41;15.40;1.00
11536;DHT22;5824;49.336;8.652;2022-08-21T04:29:07;15.30;1.00
11536;DHT22;5824;49.336;8.652;2022-08-21T04:31:34;15.30;1.00
11536;DHT22;5824;49.336;8.652;2022-08-21T04:33:59;15.30;1.00
11536;DHT22;5824;49.336;8.652;2022-08-21T04:36:25;15.20;1.00
11536;DHT22;5824;49.336;8.652;2022-08-21T04:38:50;15.20;1.00
11536;DHT22;5824;49.336;8.652;2022-08-21T04:41:16;15.20;1.00
11536;DHT22;5824;49.336;8.652;2022-08-21T04:43:42;15.20;1.00
11536;DHT22;5824;49.336;8.652;2022-08-21T04:46:08;15.20;1.00
11536;DHT22;5824;49.336;8.652;2022-08-21T04:48:34;15.20;1.00
11536;DHT22;5824;49.336;8.652;2022-08-21T04:51:01;15.20;1.00
11536;DHT22;5824;49.336;8.652;2022-08-21T04:53:32;15.20;1.00
11536;DHT22;5824;49.336;8.652;2022-08-21T04:56:04;15.20;1.00
11536;DHT22;5824;49.336;8.652;2022-08-21T04:58:30;15.20;1.00
11536;DHT22;5824;49.336;8.652;2022-08-21T05:00:58;15.30;1.00
11536;DHT22;5824;49.336;8.652;2022-08-21T05:03:24;15.30;1.00
11536;DHT22;5824;49.336;8.652;2022-08-21T05:05:50;15.30;1.00
11536;DHT22;5824;49.336;8.652;2022-08-21T05:08:18;15.40;1.00
11536;DHT22;5824;49.336;8.652;2022-08-21T05:10:44;15.40;1.00
11536;DHT22;5824;49.336;8.652;2022-08-21T05:13:12;15.50;1.00
11536;DHT22;5824;49.336;8.652;2022-08-21T05:15:39;15.60;1.00
11536;DHT22;5824;49.336;8.652;2022-08-21T05:18:04;15.60;1.00
11536;DHT22;5824;49.336;8.652;2022-08-21T05:20:30;15.60;1.00
11536;DHT22;5824;49.336;8.652;2022-08-21T05:22:56;15.80;1.00
11536;DHT22;5824;49.336;8.652;2022-08-21T05:25:22;15.80;1.00
11536;DHT22;5824;49.336;8.652;2022-08-21T05:27:47;15.90;1.00
11536;DHT22;5824;49.336;8.652;2022-08-21T05:30:13;16.10;1.00
11536;DHT22;5824;49.336;8.652;2022-08-21T05:32:39;16.20;1.00
11536;DHT22;5824;49.336;8.652;2022-08-21T05:35:05;16.30;1.00
11536;DHT22;5824;49.336;8.652;2022-08-21T05:37:31;16.30;1.00
11536;DHT22;5824;49.336;8.652;2022-08-21T05:39:57;16.40;1.00
11536;DHT22;5824;49.336;8.652;2022-08-21T05:42:22;16.50;1.00
11536;DHT22;5824;49.336;8.652;2022-08-21T05:44:48;16.70;1.00
11536;DHT22;5824;49.336;8.652;2022-08-21T05:47:14;16.80;1.00
11536;DHT22;5824;49.336;8.652;2022-08-21T05:49:40;16.90;1.00
11536;DHT22;5824;49.336;8.652;2022-08-21T05:52:05;17.10;1.00
11536;DHT22;5824;49.336;8.652;2022-08-21T05:54:31;17.10;1.00
11536;DHT22;5824;49.336;8.652;2022-08-21T05:56:57;17.20;1.00
11536;DHT22;5824;49.336;8.652;2022-08-21T05:59:23;17.20;1.00
11536;DHT22;5824;49.336;8.652;2022-08-21T06:01:49;17.30;1.00
11536;DHT22;5824;49.336;8.652;2022-08-21T06:04:14;17.40;1.00
11536;DHT22;5824;49.336;8.652;2022-08-21T06:06:40;17.50;1.00
11536;DHT22;5824;49.336;8.652;2022-08-21T06:09:06;17.60;1.00
11536;DHT22;5824;49.336;8.652;2022-08-21T06:11:32;17.60;1.00
11536;DHT22;5824;49.336;8.652;2022-08-21T06:13:59;17.60;1.00
11536;DHT22;5824;49.336;8.652;2022-08-21T06:16:25;17.80;1.00
11536;DHT22;5824;49.336;8.652;2022-08-21T06:18:51;18.00;1.00
11536;DHT22;5824;49.336;8.652;2022-08-21T06:21:17;18.20;1.00
11536;DHT22;5824;49.336;8.652;2022-08-21T06:23:43;18.30;1.00
11536;DHT22;5824;49.336;8.652;2022-08-21T06:26:11;18.50;1.00
11536;DHT22;5824;49.336;8.652;2022-08-21T06:28:38;18.60;1.00
11536;DHT22;5824;49.336;8.652;2022-08-21T06:31:21;18.60;1.00
11536;DHT22;5824;49.336;8.652;2022-08-21T06:33:47;18.70;1.00
11536;DHT22;5824;49.336;8.652;2022-08-21T06:36:13;18.90;1.00
11536;DHT22;5824;49.336;8.652;2022-08-21T06:38:39;19.20;1.00
11536;DHT22;5824;49.336;8.652;2022-08-21T06:41:05;19.30;1.00
11536;DHT22;5824;49.336;8.652;2022-08-21T06:43:31;19.50;1.00
11536;DHT22;5824;49.336;8.652;2022-08-21T06:45:57;19.70;1.00
11536;DHT22;5824;49.336;8.652;2022-08-21T06:48:22;19.90;1.00
11536;DHT22;5824;49.336;8.652;2022-08-21T06:50:48;20.40;1.00
11536;DHT22;5824;49.336;8.652;2022-08-21T06:53:16;20.80;1.00
11536;DHT22;5824;49.336;8.652;2022-08-21T06:55:43;21.10;1.00
11536;DHT22;5824;49.336;8.652;2022-08-21T06:58:09;21.40;1.00
11536;DHT22;5824;49.336;8.652;2022-08-21T07:00:39;21.50;1.00
11536;DHT22;5824;49.336;8.652;2022-08-21T07:03:04;21.70;1.00
11536;DHT22;5824;49.336;8.652;2022-08-21T07:05:30;21.80;1.00
11536;DHT22;5824;49.336;8.652;2022-08-21T07:07:56;22.00;1.00
11536;DHT22;5824;49.336;8.652;2022-08-21T07:10:23;22.10;1.00
11536;DHT22;5824;49.336;8.652;2022-08-21T07:12:50;22.30;1.00
11536;DHT22;5824;49.336;8.652;2022-08-21T07:15:16;22.50;1.00
11536;DHT22;5824;49.336;8.652;2022-08-21T07:17:42;22.50;1.00
11536;DHT22;5824;49.336;8.652;2022-08-21T07:20:08;22.60;1.00
11536;DHT22;5824;49.336;8.652;2022-08-21T07:22:35;22.80;1.00
11536;DHT22;5824;49.336;8.652;2022-08-21T07:25:02;23.10;1.00
11536;DHT22;5824;49.336;8.652;2022-08-21T07:27:28;23.20;1.00
11536;DHT22;5824;49.336;8.652;2022-08-21T07:29:53;23.30;1.00
11536;DHT22;5824;49.336;8.652;2022-08-21T07:32:19;23.50;1.00
11536;DHT22;5824;49.336;8.652;2022-08-21T07:34:44;23.60;1.00
11536;DHT22;5824;49.336;8.652;2022-08-21T07:37:10;23.70;1.00
11536;DHT22;5824;49.336;8.652;2022-08-21T07:39:36;23.70;1.00
11536;DHT22;5824;49.336;8.652;2022-08-21T07:42:01;24.00;1.00
11536;DHT22;5824;49.336;8.652;2022-08-21T07:44:28;24.20;1.00
11536;DHT22;5824;49.336;8.652;2022-08-21T07:46:54;24.60;1.00
11536;DHT22;5824;49.336;8.652;2022-08-21T07:49:19;25.10;1.00
11536;DHT22;5824;49.336;8.652;2022-08-21T07:51:45;25.90;1.00
11536;DHT22;5824;49.336;8.652;2022-08-21T07:54:10;26.90;1.00
11536;DHT22;5824;49.336;8.652;2022-08-21T07:56:36;27.90;1.00
11536;DHT22;5824;49.336;8.652;2022-08-21T07:59:02;29.10;1.00
11536;DHT22;5824;49.336;8.652;2022-08-21T08:01:28;30.00;1.00
11536;DHT22;5824;49.336;8.652;2022-08-21T08:03:54;30.90;1.00
11536;DHT22;5824;49.336;8.652;2022-08-21T08:06:20;31.40;1.00
11536;DHT22;5824;49.336;8.652;2022-08-21T08:08:46;32.10;1.00
11536;DHT22;5824;49.336;8.652;2022-08-21T08:11:12;32.50;1.00
11536;DHT22;5824;49.336;8.652;2022-08-21T08:13:46;33.00;1.00
11536;DHT22;5824;49.336;8.652;2022-08-21T08:16:12;33.60;1.00
11536;DHT22;5824;49.336;8.652;2022-08-21T08:18:38;34.20;1.00
11536;DHT22;5824;49.336;8.652;2022-08-21T08:21:04;34.40;1.00
11536;DHT22;5824;49.336;8.652;2022-08-21T08:23:31;34.90;1.00
11536;DHT22;5824;49.336;8.652;2022-08-21T08:25:57;35.20;1.00
11536;DHT22;5824;49.336;8.652;2022-08-21T08:28:23;35.00;1.00
11536;DHT22;5824;49.336;8.652;2022-08-21T08:30:49;35.40;1.00
11536;DHT22;5824;49.336;8.652;2022-08-21T08:33:15;35.90;1.00
11536;DHT22;5824;49.336;8.652;2022-08-21T08:35:46;36.50;1.00
11536;DHT22;5824;49.336;8.652;2022-08-21T08:38:12;36.70;1.00
11536;DHT22;5824;49.336;8.652;2022-08-21T08:40:47;36.90;1.00
11536;DHT22;5824;49.336;8.652;2022-08-21T08:43:17;37.50;1.00
11536;DHT22;5824;49.336;8.652;2022-08-21T08:45:48;37.60;1.00
11536;DHT22;5824;49.336;8.652;2022-08-21T08:51:39;37.90;1.00
11536;DHT22;5824;49.336;8.652;2022-08-21T08:54:09;38.20;1.00
11536;DHT22;5824;49.336;8.652;2022-08-21T08:56:37;38.30;1.00
11536;DHT22;5824;49.336;8.652;2022-08-21T08:59:27;38.70;1.00
11536;DHT22;5824;49.336;8.652;2022-08-21T09:01:54;39.10;1.00
11536;DHT22;5824;49.336;8.652;2022-08-21T09:04:26;39.30;1.00
11536;DHT22;5824;49.336;8.652;2022-08-21T09:07:31;39.20;1.00
11536;DHT22;5824;49.336;8.652;2022-08-21T09:10:20;39.30;1.00
11536;DHT22;5824;49.336;8.652;2022-08-21T09:13:19;39.60;1.00
11536;DHT22;5824;49.336;8.652;2022-08-21T09:18:45;39.90;1.00
11536;DHT22;5824;49.336;8.652;2022-08-21T09:29:30;40.70;1.00
11536;DHT22;5824;49.336;8.652;2022-08-21T09:31:56;41.10;1.00
11536;DHT22;5824;49.336;8.652;2022-08-21T09:34:28;41.40;1.00
11536;DHT22;5824;49.336;8.652;2022-08-21T09:36:55;41.80;1.00
11536;DHT22;5824;49.336;8.652;2022-08-21T09:39:25;41.90;1.00
11536;DHT22;5824;49.336;8.652;2022-08-21T09:42:00;42.10;1.00
11536;DHT22;5824;49.336;8.652;2022-08-21T09:44:29;42.10;1.00
11536;DHT22;5824;49.336;8.652;2022-08-21T09:46:55;43.00;1.00
11536;DHT22;5824;49.336;8.652;2022-08-21T09:49:33;42.80;1.00
11536;DHT22;5824;49.336;8.652;2022-08-21T09:52:00;42.80;1.00
11536;DHT22;5824;49.336;8.652;2022-08-21T09:54:31;43.30;1.00
11536;DHT22;5824;49.336;8.652;2022-08-21T09:57:14;43.70;1.00
11536;DHT22;5824;49.336;8.652;2022-08-21T10:00:09;43.90;1.00
11536;DHT22;5824;49.336;8.652;2022-08-21T10:02:36;43.70;1.00
11536;DHT22;5824;49.336;8.652;2022-08-21T10:05:04;43.80;1.00
11536;DHT22;5824;49.336;8.652;2022-08-21T10:07:32;43.90;1.00
11536;DHT22;5824;49.336;8.652;2022-08-21T10:10:07;44.10;1.00
11536;DHT22;5824;49.336;8.652;2022-08-21T10:12:49;44.10;1.00
11536;DHT22;5824;49.336;8.652;2022-08-21T10:15:40;43.90;1.00
11536;DHT22;5824;49.336;8.652;2022-08-21T10:18:22;44.00;1.00
11536;DHT22;5824;49.336;8.652;2022-08-21T10:32:28;45.00;1.00
11536;DHT22;5824;49.336;8.652;2022-08-21T10:35:12;44.50;1.00
11536;DHT22;5824;49.336;8.652;2022-08-21T10:40:40;43.60;1.00
11536;DHT22;5824;49.336;8.652;2022-08-21T10:46:09;44.70;1.00
11536;DHT22;5824;49.336;8.652;2022-08-21T10:48:47;45.00;1.00
11536;DHT22;5824;49.336;8.652;2022-08-21T10:56:26;44.30;1.00
11536;DHT22;5824;49.336;8.652;2022-08-21T11:05:25;43.80;1.00
11536;DHT22;5824;49.336;8.652;2022-08-21T11:09:56;43.00;1.00
11536;DHT22;5824;49.336;8.652;2022-08-21T11:12:39;44.70;1.00
11536;DHT22;5824;49.336;8.652;2022-08-21T11:15:18;44.90;1.00
11536;DHT22;5824;49.336;8.652;2022-08-21T11:18:09;46.00;1.00
11536;DHT22;5824;49.336;8.652;2022-08-21T11:20:56;46.40;1.00
11536;DHT22;5824;49.336;8.652;2022-08-21T11:23:48;46.20;1.00
11536;DHT22;5824;49.336;8.652;2022-08-21T11:26:24;45.60;1.00
11536;DHT22;5824;49.336;8.652;2022-08-21T11:29:05;46.10;1.00
11536;DHT22;5824;49.336;8.652;2022-08-21T11:34:14;47.30;1.00
11536;DHT22;5824;49.336;8.652;2022-08-21T11:39:34;45.50;1.00
11536;DHT22;5824;49.336;8.652;2022-08-21T11:42:11;45.40;1.00
11536;DHT22;5824;49.336;8.652;2022-08-21T11:47:19;44.60;1.00
11536;DHT22;5824;49.336;8.652;2022-08-21T11:52:43;45.10;1.00
11536;DHT22;5824;49.336;8.652;2022-08-21T11:55:29;45.50;1.00
11536;DHT22;5824;49.336;8.652;2022-08-21T12:00:49;46.30;1.00
11536;DHT22;5824;49.336;8.652;2022-08-21T12:03:26;45.10;1.00
11536;DHT22;5824;49.336;8.652;2022-08-21T12:05:58;45.40;1.00
11536;DHT22;5824;49.336;8.652;2022-08-21T12:08:35;45.00;1.00
11536;DHT22;5824;49.336;8.652;2022-08-21T12:11:20;45.40;1.00
11536;DHT22;5824;49.336;8.652;2022-08-21T12:16:39;45.70;1.00
11536;DHT22;5824;49.336;8.652;2022-08-21T12:21:32;46.00;1.00
11536;DHT22;5824;49.336;8.652;2022-08-21T12:26:52;47.00;1.00
11536;DHT22;5824;49.336;8.652;2022-08-21T12:29:36;47.30;1.00
11536;DHT22;5824;49.336;8.652;2022-08-21T12:32:19;46.20;1.00
11536;DHT22;5824;49.336;8.652;2022-08-21T12:34:52;45.70;1.00
11536;DHT22;5824;49.336;8.652;2022-08-21T12:39:57;46.20;1.00
11536;DHT22;5824;49.336;8.652;2022-08-21T12:42:37;46.60;1.00
11536;DHT22;5824;49.336;8.652;2022-08-21T12:45:14;47.30;1.00
11536;DHT22;5824;49.336;8.652;2022-08-21T12:48:01;48.30;1.00
11536;DHT22;5824;49.336;8.652;2022-08-21T12:50:52;48.40;1.00
11536;DHT22;5824;49.336;8.652;2022-08-21T12:53:28;48.30;1.00
11536;DHT22;5824;49.336;8.652;2022-08-21T12:55:55;48.20;1.00
11536;DHT22;5824;49.336;8.652;2022-08-21T12:58:28;48.30;1.00
11536;DHT22;5824;49.336;8.652;2022-08-21T13:01:06;47.90;1.00
11536;DHT22;5824;49.336;8.652;2022-08-21T13:03:35;47.90;1.00
11536;DHT22;5824;49.336;8.652;2022-08-21T13:06:04;48.30;1.00
11536;DHT22;5824;49.336;8.652;2022-08-21T13:08:30;47.80;1.00
11536;DHT22;5824;49.336;8.652;2022-08-21T13:11:03;48.10;1.00
11536;DHT22;5824;49.336;8.652;2022-08-21T13:13:30;49.10;1.00
11536;DHT22;5824;49.336;8.652;2022-08-21T13:16:06;48.70;1.00
11536;DHT22;5824;49.336;8.652;2022-08-21T13:18:35;49.20;1.00
11536;DHT22;5824;49.336;8.652;2022-08-21T13:21:12;48.80;1.00
11536;DHT22;5824;49.336;8.652;2022-08-21T13:23:38;48.80;1.00
11536;DHT22;5824;49.336;8.652;2022-08-21T13:26:21;49.00;1.00
11536;DHT22;5824;49.336;8.652;2022-08-21T13:28:47;48.20;1.00
11536;DHT22;5824;49.336;8.652;2022-08-21T13:31:22;47.50;1.00
11536;DHT22;5824;49.336;8.652;2022-08-21T13:33:50;48.40;1.00
11536;DHT22;5824;49.336;8.652;2022-08-21T13:36:26;47.90;1.00
11536;DHT22;5824;49.336;8.652;2022-08-21T13:38:54;47.80;1.00
11536;DHT22;5824;49.336;8.652;2022-08-21T13:41:24;47.80;1.00
11536;DHT22;5824;49.336;8.652;2022-08-21T13:44:16;48.20;1.00
11536;DHT22;5824;49.336;8.652;2022-08-21T13:46:42;48.30;1.00
11536;DHT22;5824;49.336;8.652;2022-08-21T13:49:09;48.00;1.00
11536;DHT22;5824;49.336;8.652;2022-08-21T13:51:36;48.10;1.00
11536;DHT22;5824;49.336;8.652;2022-08-21T13:54:59;47.70;1.00
11536;DHT22;5824;49.336;8.652;2022-08-21T13:56:59;48.00;1.00
11536;DHT22;5824;49.336;8.652;2022-08-21T13:59:27;47.60;1.00
11536;DHT22;5824;49.336;8.652;2022-08-21T14:04:38;46.90;1.00
11536;DHT22;5824;49.336;8.652;2022-08-21T14:07:26;47.30;1.00
11536;DHT22;5824;49.336;8.652;2022-08-21T14:09:54;47.30;1.00
11536;DHT22;5824;49.336;8.652;2022-08-21T14:12:27;45.50;1.00
11536;DHT22;5824;49.336;8.652;2022-08-21T14:14:55;44.70;1.00
11536;DHT22;5824;49.336;8.652;2022-08-21T14:17:31;45.90;1.00
11536;DHT22;5824;49.336;8.652;2022-08-21T14:19:56;46.20;1.00
11536;DHT22;5824;49.336;8.652;2022-08-21T14:22:39;46.10;1.00
11536;DHT22;5824;49.336;8.652;2022-08-21T14:25:11;46.50;1.00
11536;DHT22;5824;49.336;8.652;2022-08-21T14:27:44;46.90;1.00
11536;DHT22;5824;49.336;8.652;2022-08-21T14:30:27;46.30;1.00
11536;DHT22;5824;49.336;8.652;2022-08-21T14:32:53;46.20;1.00
11536;DHT22;5824;49.336;8.652;2022-08-21T14:35:19;46.10;1.00
11536;DHT22;5824;49.336;8.652;2022-08-21T14:37:47;46.10;1.00
11536;DHT22;5824;49.336;8.652;2022-08-21T14:40:15;45.50;1.00
11536;DHT22;5824;49.336;8.652;2022-08-21T14:42:41;43.60;1.00
11536;DHT22;5824;49.336;8.652;2022-08-21T14:45:27;43.20;1.00
11536;DHT22;5824;49.336;8.652;2022-08-21T14:47:54;42.70;1.00
11536;DHT22;5824;49.336;8.652;2022-08-21T14:50:19;42.60;1.00
11536;DHT22;5824;49.336;8.652;2022-08-21T14:52:45;42.60;1.00
11536;DHT22;5824;49.336;8.652;2022-08-21T14:55:13;42.40;1.00
11536;DHT22;5824;49.336;8.652;2022-08-21T14:57:44;42.60;1.00
11536;DHT22;5824;49.336;8.652;2022-08-21T15:00:13;42.60;1.00
11536;DHT22;5824;49.336;8.652;2022-08-21T15:02:39;42.60;1.00
11536;DHT22;5824;49.336;8.652;2022-08-21T15:05:05;43.10;1.00
11536;DHT22;5824;49.336;8.652;2022-08-21T15:07:31;42.90;1.00
11536;DHT22;5824;49.336;8.652;2022-08-21T15:09:56;43.20;1.00
11536;DHT22;5824;49.336;8.652;2022-08-21T15:12:23;42.70;1.00
11536;DHT22;5824;49.336;8.652;2022-08-21T15:14:50;42.90;1.00
11536;DHT22;5824;49.336;8.652;2022-08-21T15:17:15;43.00;1.00
11536;DHT22;5824;49.336;8.652;2022-08-21T15:19:41;42.60;1.00
11536;DHT22;5824;49.336;8.652;2022-08-21T15:22:07;42.60;1.00
11536;DHT22;5824;49.336;8.652;2022-08-21T15:24:32;42.00;1.00
11536;DHT22;5824;49.336;8.652;2022-08-21T15:27:00;41.40;1.00
11536;DHT22;5824;49.336;8.652;2022-08-21T15:29:26;41.00;1.00
11536;DHT22;5824;49.336;8.652;2022-08-21T15:31:55;41.50;1.00
11536;DHT22;5824;49.336;8.652;2022-08-21T15:34:23;41.80;1.00
11536;DHT22;5824;49.336;8.652;2022-08-21T15:36:49;41.50;1.00
11536;DHT22;5824;49.336;8.652;2022-08-21T15:39:15;40.80;1.00
11536;DHT22;5824;49.336;8.652;2022-08-21T15:41:40;40.70;1.00
11536;DHT22;5824;49.336;8.652;2022-08-21T15:44:06;40.50;1.00
11536;DHT22;5824;49.336;8.652;2022-08-21T15:46:34;40.40;1.00
11536;DHT22;5824;49.336;8.652;2022-08-21T15:49:00;40.70;1.00
11536;DHT22;5824;49.336;8.652;2022-08-21T15:51:25;40.50;1.00
11536;DHT22;5824;49.336;8.652;2022-08-21T15:53:51;40.50;1.00
11536;DHT22;5824;49.336;8.652;2022-08-21T15:56:22;40.00;1.00
11536;DHT22;5824;49.336;8.652;2022-08-21T15:58:52;40.00;1.00
11536;DHT22;5824;49.336;8.652;2022-08-21T16:01:20;39.80;1.00
11536;DHT22;5824;49.336;8.652;2022-08-21T16:03:49;41.10;1.00
11536;DHT22;5824;49.336;8.652;2022-08-21T16:06:15;39.60;1.00
11536;DHT22;5824;49.336;8.652;2022-08-21T16:08:41;39.40;1.00
11536;DHT22;5824;49.336;8.652;2022-08-21T16:11:06;39.30;1.00
11536;DHT22;5824;49.336;8.652;2022-08-21T16:13:38;39.00;1.00
11536;DHT22;5824;49.336;8.652;2022-08-21T16:16:04;38.50;1.00
11536;DHT22;5824;49.336;8.652;2022-08-21T16:18:30;38.20;1.00
11536;DHT22;5824;49.336;8.652;2022-08-21T16:20:56;38.00;1.00
11536;DHT22;5824;49.336;8.652;2022-08-21T16:23:22;36.30;1.00
11536;DHT22;5824;49.336;8.652;2022-08-21T16:25:47;36.60;1.00
11536;DHT22;5824;49.336;8.652;2022-08-21T16:28:15;36.10;1.00
11536;DHT22;5824;49.336;8.652;2022-08-21T16:30:44;36.00;1.00
11536;DHT22;5824;49.336;8.652;2022-08-21T16:33:38;35.60;1.00
11536;DHT22;5824;49.336;8.652;2022-08-21T16:36:06;35.30;1.00
11536;DHT22;5824;49.336;8.652;2022-08-21T16:38:32;34.80;1.00
11536;DHT22;5824;49.336;8.652;2022-08-21T16:40:59;34.30;1.00
11536;DHT22;5824;49.336;8.652;2022-08-21T16:43:27;34.20;1.00
11536;DHT22;5824;49.336;8.652;2022-08-21T16:45:54;33.60;1.00
11536;DHT22;5824;49.336;8.652;2022-08-21T16:48:20;33.40;1.00
11536;DHT22;5824;49.336;8.652;2022-08-21T16:50:45;33.20;1.00
11536;DHT22;5824;49.336;8.652;2022-08-21T16:53:11;33.00;1.00
11536;DHT22;5824;49.336;8.652;2022-08-21T16:55:37;32.30;1.00
11536;DHT22;5824;49.336;8.652;2022-08-21T16:58:30;31.90;1.00
11536;DHT22;5824;49.336;8.652;2022-08-21T17:00:56;31.50;1.00
11536;DHT22;5824;49.336;8.652;2022-08-21T17:03:29;31.10;1.00
11536;DHT22;5824;49.336;8.652;2022-08-21T17:05:56;30.70;1.00
11536;DHT22;5824;49.336;8.652;2022-08-21T17:08:22;30.30;1.00
11536;DHT22;5824;49.336;8.652;2022-08-21T17:10:49;30.10;1.00
11536;DHT22;5824;49.336;8.652;2022-08-21T17:13:15;29.80;1.00
11536;DHT22;5824;49.336;8.652;2022-08-21T17:15:41;29.60;1.00
11536;DHT22;5824;49.336;8.652;2022-08-21T17:18:12;29.50;1.00
11536;DHT22;5824;49.336;8.652;2022-08-21T17:20:39;29.60;1.00
11536;DHT22;5824;49.336;8.652;2022-08-21T17:23:05;29.30;1.00
11536;DHT22;5824;49.336;8.652;2022-08-21T17:25:31;29.20;1.00
11536;DHT22;5824;49.336;8.652;2022-08-21T17:27:57;29.40;1.00